Weather at Brigadier Antonio Parodi Airport

Public forecast

Using degrees Celsius for public forecast. Weather courtesy of forecast.io.

Current aviation weather report (METAR) for Brigadier Antonio Parodi Airport

Report is more than 6 hours old.

Retrieved 2021/07/30 17:36 UTC (3 days ago):

SAVE 301736Z 29018G32KT 200V320 9999 FEW035 BKN200 07/M08 Q1013

Aviation forecast (TAF) for Brigadier Antonio Parodi Airport

Forecast is more than 12 hours old.

Retrieved 2021-07-25 00:32 UTC (9 days ago):

TAF SAVE 242300Z 2500/2524 VRB05KT 9999 SCT030 BKN060 TX05/2518Z TNM02/2512Z PROB40 TEMPO 2508/2513 BKN015 BECMG 2515/2517 27010KT CAVOK